sensor_id;sensor_type;location;lat;lon;timestamp;pressure;altitude;pressure_sealevel;temperature;humidity
41898;BME280;27576;53.366;-1.498;2022-08-21T00:00:16;99971.72;;;17.34;75.47
41898;BME280;27576;53.366;-1.498;2022-08-21T00:02:49;99976.28;;;17.24;75.77
41898;BME280;27576;53.366;-1.498;2022-08-21T00:05:16;99953.88;;;17.11;75.43
41898;BME280;27576;53.366;-1.498;2022-08-21T00:07:42;99963.41;;;17.15;75.75
41898;BME280;27576;53.366;-1.498;2022-08-21T00:10:08;99973.81;;;17.16;76.00
41898;BME280;27576;53.366;-1.498;2022-08-21T00:12:33;99960.19;;;17.01;76.12
41898;BME280;27576;53.366;-1.498;2022-08-21T00:14:59;99972.31;;;17.05;76.30
41898;BME280;27576;53.366;-1.498;2022-08-21T00:17:24;99980.16;;;17.06;76.74
41898;BME280;27576;53.366;-1.498;2022-08-21T00:19:50;99979.31;;;17.04;76.63
41898;BME280;27576;53.366;-1.498;2022-08-21T00:22:15;99959.53;;;16.89;76.82
41898;BME280;27576;53.366;-1.498;2022-08-21T00:24:41;99970.72;;;16.98;76.59
41898;BME280;27576;53.366;-1.498;2022-08-21T00:27:06;99973.41;;;16.95;76.75
41898;BME280;27576;53.366;-1.498;2022-08-21T00:29:32;99977.69;;;16.99;77.19
41898;BME280;27576;53.366;-1.498;2022-08-21T00:31:57;99949.31;;;16.77;77.33
41898;BME280;27576;53.366;-1.498;2022-08-21T00:34:24;99941.59;;;16.71;77.24
41898;BME280;27576;53.366;-1.498;2022-08-21T00:36:49;99954.59;;;16.76;77.61
41898;BME280;27576;53.366;-1.498;2022-08-21T00:39:15;99968.41;;;16.84;77.79
41898;BME280;27576;53.366;-1.498;2022-08-21T00:41:41;99956.31;;;16.78;78.25
41898;BME280;27576;53.366;-1.498;2022-08-21T00:44:10;99964.13;;;16.80;78.17
41898;BME280;27576;53.366;-1.498;2022-08-21T00:46:37;99939.94;;;16.65;78.28
41898;BME280;27576;53.366;-1.498;2022-08-21T00:49:04;99965.06;;;16.76;78.45
41898;BME280;27576;53.366;-1.498;2022-08-21T00:51:37;99934.97;;;16.52;79.10
41898;BME280;27576;53.366;-1.498;2022-08-21T00:54:04;99969.50;;;16.71;78.85
41898;BME280;27576;53.366;-1.498;2022-08-21T00:56:31;99927.22;;;16.47;78.75
41898;BME280;27576;53.366;-1.498;2022-08-21T00:58:57;99966.09;;;16.67;79.16
41898;BME280;27576;53.366;-1.498;2022-08-21T01:01:25;99941.09;;;16.51;78.85
41898;BME280;27576;53.366;-1.498;2022-08-21T01:03:50;99962.66;;;16.63;79.29
41898;BME280;27576;53.366;-1.498;2022-08-21T01:06:16;99940.25;;;16.49;79.22
41898;BME280;27576;53.366;-1.498;2022-08-21T01:08:42;99948.97;;;16.49;79.30
41898;BME280;27576;53.366;-1.498;2022-08-21T01:11:07;99938.63;;;16.43;79.65
41898;BME280;27576;53.366;-1.498;2022-08-21T01:13:35;99955.91;;;16.50;79.79
41898;BME280;27576;53.366;-1.498;2022-08-21T01:16:04;99949.16;;;16.40;80.13
41898;BME280;27576;53.366;-1.498;2022-08-21T01:18:30;99963.84;;;16.45;80.33
41898;BME280;27576;53.366;-1.498;2022-08-21T01:21:21;99963.09;;;16.40;80.95
41898;BME280;27576;53.366;-1.498;2022-08-21T01:23:50;99962.22;;;16.38;80.59
41898;BME280;27576;53.366;-1.498;2022-08-21T01:26:21;99962.38;;;16.31;81.01
41898;BME280;27576;53.366;-1.498;2022-08-21T01:28:59;99946.88;;;16.20;81.60
41898;BME280;27576;53.366;-1.498;2022-08-21T01:31:27;99963.25;;;16.30;81.38
41898;BME280;27576;53.366;-1.498;2022-08-21T01:33:55;99953.78;;;16.23;81.28
41898;BME280;27576;53.366;-1.498;2022-08-21T01:36:21;99965.94;;;16.27;81.59
41898;BME280;27576;53.366;-1.498;2022-08-21T01:38:47;99948.66;;;16.19;82.06
41898;BME280;27576;53.366;-1.498;2022-08-21T01:41:13;99950.53;;;16.11;82.23
41898;BME280;27576;53.366;-1.498;2022-08-21T01:43:40;99966.00;;;16.24;82.21
41898;BME280;27576;53.366;-1.498;2022-08-21T01:46:06;99963.41;;;16.22;82.34
41898;BME280;27576;53.366;-1.498;2022-08-21T01:48:31;99939.34;;;16.02;82.46
41898;BME280;27576;53.366;-1.498;2022-08-21T01:50:57;99956.66;;;16.09;82.55
41898;BME280;27576;53.366;-1.498;2022-08-21T01:53:22;99955.81;;;16.08;82.84
41898;BME280;27576;53.366;-1.498;2022-08-21T01:55:48;99961.03;;;16.08;83.29
41898;BME280;27576;53.366;-1.498;2022-08-21T01:58:14;99931.81;;;15.85;83.45
41898;BME280;27576;53.366;-1.498;2022-08-21T02:00:39;99978.53;;;16.03;83.99
41898;BME280;27576;53.366;-1.498;2022-08-21T02:03:05;99969.91;;;15.98;84.11
41898;BME280;27576;53.366;-1.498;2022-08-21T02:05:30;99944.00;;;15.84;84.50
41898;BME280;27576;53.366;-1.498;2022-08-21T02:07:56;99965.53;;;15.99;84.58
41898;BME280;27576;53.366;-1.498;2022-08-21T02:10:25;99948.34;;;15.85;84.73
41898;BME280;27576;53.366;-1.498;2022-08-21T02:12:52;99964.78;;;15.92;84.85
41898;BME280;27576;53.366;-1.498;2022-08-21T02:15:17;99942.38;;;15.77;85.06
41898;BME280;27576;53.366;-1.498;2022-08-21T02:17:50;99969.19;;;15.88;85.27
41898;BME280;27576;53.366;-1.498;2022-08-21T02:22:47;99961.59;;;15.71;85.37
41898;BME280;27576;53.366;-1.498;2022-08-21T02:25:13;99965.94;;;15.74;85.67
41898;BME280;27576;53.366;-1.498;2022-08-21T02:27:44;99978.91;;;15.79;86.05
41898;BME280;27576;53.366;-1.498;2022-08-21T02:30:15;99955.59;;;15.66;85.97
41898;BME280;27576;53.366;-1.498;2022-08-21T02:32:41;99953.81;;;15.70;85.93
41898;BME280;27576;53.366;-1.498;2022-08-21T02:35:08;99941.69;;;15.64;86.08
41898;BME280;27576;53.366;-1.498;2022-08-21T02:37:41;99942.59;;;15.62;86.04
41898;BME280;27576;53.366;-1.498;2022-08-21T02:40:07;99939.09;;;15.61;86.18
41898;BME280;27576;53.366;-1.498;2022-08-21T02:42:36;99929.59;;;15.57;86.29
41898;BME280;27576;53.366;-1.498;2022-08-21T02:45:03;99938.16;;;15.68;86.40
41898;BME280;27576;53.366;-1.498;2022-08-21T02:47:28;99954.66;;;15.70;86.68
41898;BME280;27576;53.366;-1.498;2022-08-21T02:49:54;99953.84;;;15.67;86.44
41898;BME280;27576;53.366;-1.498;2022-08-21T02:52:19;99933.97;;;15.55;86.55
41898;BME280;27576;53.366;-1.498;2022-08-21T02:54:45;99946.88;;;15.67;86.66
41898;BME280;27576;53.366;-1.498;2022-08-21T02:57:10;99953.88;;;15.65;86.71
41898;BME280;27576;53.366;-1.498;2022-08-21T02:59:36;99942.63;;;15.60;86.73
41898;BME280;27576;53.366;-1.498;2022-08-21T03:02:01;99944.28;;;15.64;87.08
41898;BME280;27576;53.366;-1.498;2022-08-21T03:04:27;99908.91;;;15.43;86.97
41898;BME280;27576;53.366;-1.498;2022-08-21T03:06:52;99926.06;;;15.61;86.79
41898;BME280;27576;53.366;-1.498;2022-08-21T03:09:18;99921.75;;;15.56;86.85
41898;BME280;27576;53.366;-1.498;2022-08-21T03:11:43;99938.22;;;15.65;87.22
41898;BME280;27576;53.366;-1.498;2022-08-21T03:14:09;99920.00;;;15.58;87.08
41898;BME280;27576;53.366;-1.498;2022-08-21T03:16:34;99928.59;;;15.69;87.04
41898;BME280;27576;53.366;-1.498;2022-08-21T03:19:00;99913.03;;;15.58;87.20
41898;BME280;27576;53.366;-1.498;2022-08-21T03:21:25;99910.47;;;15.57;87.44
41898;BME280;27576;53.366;-1.498;2022-08-21T03:23:51;99913.97;;;15.54;87.82
41898;BME280;27576;53.366;-1.498;2022-08-21T03:26:16;99888.88;;;15.44;88.06
41898;BME280;27576;53.366;-1.498;2022-08-21T03:28:42;99881.13;;;15.39;88.10
41898;BME280;27576;53.366;-1.498;2022-08-21T03:31:08;99934.78;;;15.60;88.39
41898;BME280;27576;53.366;-1.498;2022-08-21T03:33:33;99907.06;;;15.50;88.68
41898;BME280;27576;53.366;-1.498;2022-08-21T03:36:03;99926.06;;;15.61;88.65
41898;BME280;27576;53.366;-1.498;2022-08-21T03:38:30;99931.25;;;15.63;88.78
41898;BME280;27576;53.366;-1.498;2022-08-21T03:40:56;99923.44;;;15.61;88.69
41898;BME280;27576;53.366;-1.498;2022-08-21T03:43:22;99908.81;;;15.48;88.61
41898;BME280;27576;53.366;-1.498;2022-08-21T03:45:47;99919.19;;;15.54;88.76
41898;BME280;27576;53.366;-1.498;2022-08-21T03:48:13;99907.03;;;15.53;88.96
41898;BME280;27576;53.366;-1.498;2022-08-21T03:50:42;99938.22;;;15.65;89.27
41898;BME280;27576;53.366;-1.498;2022-08-21T03:53:10;99932.22;;;15.56;89.14
41898;BME280;27576;53.366;-1.498;2022-08-21T03:55:36;99933.88;;;15.61;89.40
41898;BME280;27576;53.366;-1.498;2022-08-21T03:58:02;99918.34;;;15.52;89.88
41898;BME280;27576;53.366;-1.498;2022-08-21T04:00:28;99933.03;;;15.61;90.08
41898;BME280;27576;53.366;-1.498;2022-08-21T04:02:54;99947.75;;;15.66;90.64
41898;BME280;27576;53.366;-1.498;2022-08-21T04:05:20;99927.09;;;15.48;91.40
41898;BME280;27576;53.366;-1.498;2022-08-21T04:07:59;99955.69;;;15.60;92.11
41898;BME280;27576;53.366;-1.498;2022-08-21T04:10:27;99948.69;;;15.59;92.10
41898;BME280;27576;53.366;-1.498;2022-08-21T04:12:53;99947.88;;;15.57;92.13
41898;BME280;27576;53.366;-1.498;2022-08-21T04:15:19;99952.25;;;15.57;92.42
41898;BME280;27576;53.366;-1.498;2022-08-21T04:17:45;99953.19;;;15.53;92.62
41898;BME280;27576;53.366;-1.498;2022-08-21T04:20:10;99945.44;;;15.43;92.83
41898;BME280;27576;53.366;-1.498;2022-08-21T04:22:36;99939.41;;;15.40;92.96
41898;BME280;27576;53.366;-1.498;2022-08-21T04:25:01;99951.50;;;15.47;93.37
41898;BME280;27576;53.366;-1.498;2022-08-21T04:27:26;99951.63;;;15.38;93.47
41898;BME280;27576;53.366;-1.498;2022-08-21T04:29:52;99973.16;;;15.52;93.47
41898;BME280;27576;53.366;-1.498;2022-08-21T04:32:24;99982.75;;;15.53;95.39
41898;BME280;27576;53.366;-1.498;2022-08-21T04:34:50;99964.59;;;15.45;96.59
41898;BME280;27576;53.366;-1.498;2022-08-21T04:37:16;99970.69;;;15.44;97.04
41898;BME280;27576;53.366;-1.498;2022-08-21T04:39:41;99975.88;;;15.46;98.00
41898;BME280;27576;53.366;-1.498;2022-08-21T04:42:07;99947.41;;;15.29;97.85
41898;BME280;27576;53.366;-1.498;2022-08-21T04:44:34;99967.28;;;15.39;99.47
41898;BME280;27576;53.366;-1.498;2022-08-21T04:46:59;99943.03;;;15.33;99.72
41898;BME280;27576;53.366;-1.498;2022-08-21T04:49:24;99973.34;;;15.40;99.85
41898;BME280;27576;53.366;-1.498;2022-08-21T04:51:59;99962.19;;;15.29;100.00
41898;BME280;27576;53.366;-1.498;2022-08-21T04:54:25;99956.19;;;15.25;100.00
41898;BME280;27576;53.366;-1.498;2022-08-21T04:56:54;99987.25;;;15.40;100.00
41898;BME280;27576;53.366;-1.498;2022-08-21T04:59:26;99976.97;;;15.33;100.00
41898;BME280;27576;53.366;-1.498;2022-08-21T05:01:54;99968.34;;;15.25;100.00
41898;BME280;27576;53.366;-1.498;2022-08-21T05:04:25;99989.13;;;15.32;100.00
41898;BME280;27576;53.366;-1.498;2022-08-21T05:06:54;100004.69;;;15.40;100.00
41898;BME280;27576;53.366;-1.498;2022-08-21T05:09:22;100002.97;;;15.39;100.00
41898;BME280;27576;53.366;-1.498;2022-08-21T05:11:49;100003.84;;;15.36;100.00
41898;BME280;27576;53.366;-1.498;2022-08-21T05:14:16;99991.00;;;15.22;100.00
41898;BME280;27576;53.366;-1.498;2022-08-21T05:16:42;99997.88;;;15.28;100.00
41898;BME280;27576;53.366;-1.498;2022-08-21T05:19:09;100011.69;;;15.36;100.00
41898;BME280;27576;53.366;-1.498;2022-08-21T05:21:37;99990.03;;;15.30;100.00
41898;BME280;27576;53.366;-1.498;2022-08-21T05:24:03;99984.00;;;15.25;100.00
41898;BME280;27576;53.366;-1.498;2022-08-21T05:26:28;99998.72;;;15.30;100.00
41898;BME280;27576;53.366;-1.498;2022-08-21T05:28:55;100000.44;;;15.33;100.00
41898;BME280;27576;53.366;-1.498;2022-08-21T05:31:20;100015.13;;;15.40;100.00
41898;BME280;27576;53.366;-1.498;2022-08-21T05:33:45;100012.59;;;15.37;100.00
41898;BME280;27576;53.366;-1.498;2022-08-21T05:36:11;100025.47;;;15.47;100.00
41898;BME280;27576;53.366;-1.498;2022-08-21T05:38:36;100003.03;;;15.34;100.00
41898;BME280;27576;53.366;-1.498;2022-08-21T05:41:02;100028.00;;;15.52;100.00
41898;BME280;27576;53.366;-1.498;2022-08-21T05:43:27;100006.47;;;15.38;100.00
41898;BME280;27576;53.366;-1.498;2022-08-21T05:45:52;100038.44;;;15.55;100.00
41898;BME280;27576;53.366;-1.498;2022-08-21T05:48:23;100048.00;;;15.56;100.00
41898;BME280;27576;53.366;-1.498;2022-08-21T05:50:50;100043.63;;;15.58;100.00
41898;BME280;27576;53.366;-1.498;2022-08-21T05:53:17;100043.63;;;15.58;100.00
41898;BME280;27576;53.366;-1.498;2022-08-21T05:55:43;100042.66;;;15.64;100.00
41898;BME280;27576;53.366;-1.498;2022-08-21T05:58:09;100015.03;;;15.47;100.00
41898;BME280;27576;53.366;-1.498;2022-08-21T06:00:35;100028.00;;;15.52;100.00
41898;BME280;27576;53.366;-1.498;2022-08-21T06:03:01;100038.38;;;15.58;100.00
41898;BME280;27576;53.366;-1.498;2022-08-21T06:05:26;100047.03;;;15.63;100.00
41898;BME280;27576;53.366;-1.498;2022-08-21T06:07:52;100034.06;;;15.56;100.00
41898;BME280;27576;53.366;-1.498;2022-08-21T06:10:18;100062.66;;;15.69;100.00
41898;BME280;27576;53.366;-1.498;2022-08-21T06:12:44;100029.75;;;15.53;100.00
41898;BME280;27576;53.366;-1.498;2022-08-21T06:15:09;100045.28;;;15.65;100.00
41898;BME280;27576;53.366;-1.498;2022-08-21T06:17:35;100049.53;;;15.74;100.00
41898;BME280;27576;53.366;-1.498;2022-08-21T06:20:00;100052.97;;;15.78;100.00
41898;BME280;27576;53.366;-1.498;2022-08-21T06:22:26;100052.03;;;15.82;100.00
41898;BME280;27576;53.366;-1.498;2022-08-21T06:24:51;100056.28;;;15.89;100.00
41898;BME280;27576;53.366;-1.498;2022-08-21T06:27:16;100036.34;;;15.82;99.36
41898;BME280;27576;53.366;-1.498;2022-08-21T06:29:43;100058.78;;;15.95;99.02
41898;BME280;27576;53.366;-1.498;2022-08-21T06:32:11;100064.84;;;16.00;98.75
41898;BME280;27576;53.366;-1.498;2022-08-21T06:34:39;100032.00;;;15.82;98.95
41898;BME280;27576;53.366;-1.498;2022-08-21T06:37:05;100043.25;;;15.86;99.94
41898;BME280;27576;53.366;-1.498;2022-08-21T06:39:31;100069.16;;;16.01;99.53
41898;BME280;27576;53.366;-1.498;2022-08-21T06:41:57;100036.31;;;15.85;99.44
41898;BME280;27576;53.366;-1.498;2022-08-21T06:44:22;100015.53;;;15.77;98.91
41898;BME280;27576;53.366;-1.498;2022-08-21T06:46:47;100036.31;;;15.83;98.06
41898;BME280;27576;53.366;-1.498;2022-08-21T06:49:13;100038.09;;;15.80;97.44
41898;BME280;27576;53.366;-1.498;2022-08-21T06:51:39;100038.94;;;15.85;98.14
41898;BME280;27576;53.366;-1.498;2022-08-21T06:54:05;100075.22;;;16.03;95.67
41898;BME280;27576;53.366;-1.498;2022-08-21T06:56:30;100063.09;;;15.99;95.25
41898;BME280;27576;53.366;-1.498;2022-08-21T06:58:56;100075.25;;;16.02;95.14
41898;BME280;27576;53.366;-1.498;2022-08-21T07:01:24;100075.25;;;16.02;94.85
41898;BME280;27576;53.366;-1.498;2022-08-21T07:03:49;100044.97;;;15.88;95.55
41898;BME280;27576;53.366;-1.498;2022-08-21T07:06:15;100060.47;;;16.01;96.49
41898;BME280;27576;53.366;-1.498;2022-08-21T07:08:41;100024.19;;;15.79;94.30
41898;BME280;27576;53.366;-1.498;2022-08-21T07:11:14;100062.94;;;16.10;94.71
41898;BME280;27576;53.366;-1.498;2022-08-21T07:13:42;100060.34;;;16.08;93.97
41898;BME280;27576;53.366;-1.498;2022-08-21T07:16:07;100044.69;;;16.08;93.97
41898;BME280;27576;53.366;-1.498;2022-08-21T07:18:33;100082.50;;;16.40;94.74
41898;BME280;27576;53.366;-1.498;2022-08-21T07:21:01;100082.16;;;16.61;95.19
41898;BME280;27576;53.366;-1.498;2022-08-21T07:23:32;100081.00;;;16.78;93.72
41898;BME280;27576;53.366;-1.498;2022-08-21T07:25:58;100081.78;;;16.86;92.82
41898;BME280;27576;53.366;-1.498;2022-08-21T07:28:25;100074.78;;;16.85;90.89
41898;BME280;27576;53.366;-1.498;2022-08-21T07:30:53;100075.72;;;16.81;91.00
41898;BME280;27576;53.366;-1.498;2022-08-21T07:33:20;100065.31;;;16.78;90.38
41898;BME280;27576;53.366;-1.498;2022-08-21T07:35:45;100063.47;;;16.84;90.43
41898;BME280;27576;53.366;-1.498;2022-08-21T07:38:10;100057.09;;;16.99;91.75
41898;BME280;27576;53.366;-1.498;2022-08-21T07:40:36;100078.16;;;17.38;91.35
41898;BME280;27576;53.366;-1.498;2022-08-21T07:43:01;100091.69;;;17.58;90.59
41898;BME280;27576;53.366;-1.498;2022-08-21T07:45:28;100099.25;;;17.72;86.33
41898;BME280;27576;53.366;-1.498;2022-08-21T07:47:53;100098.38;;;17.72;84.38
41898;BME280;27576;53.366;-1.498;2022-08-21T07:50:19;100066.91;;;17.73;84.78
41898;BME280;27576;53.366;-1.498;2022-08-21T07:52:45;100080.38;;;17.98;85.42
41898;BME280;27576;53.366;-1.498;2022-08-21T07:55:12;100087.94;;;18.12;81.71
41898;BME280;27576;53.366;-1.498;2022-08-21T07:57:38;100093.91;;;18.17;79.23
41898;BME280;27576;53.366;-1.498;2022-08-21T08:00:07;100065.38;;;18.03;78.30
41898;BME280;27576;53.366;-1.498;2022-08-21T08:02:33;100093.81;;;18.22;78.74
41898;BME280;27576;53.366;-1.498;2022-08-21T08:05:02;100097.97;;;18.30;78.99
41898;BME280;27576;53.366;-1.498;2022-08-21T08:07:27;100079.78;;;18.24;79.34
41898;BME280;27576;53.366;-1.498;2022-08-21T08:09:53;100083.25;;;18.23;76.76
41898;BME280;27576;53.366;-1.498;2022-08-21T08:12:18;100092.78;;;18.27;75.90
41898;BME280;27576;53.366;-1.498;2022-08-21T08:14:45;100095.00;;;18.08;74.78
41898;BME280;27576;53.366;-1.498;2022-08-21T08:17:11;100085.50;;;18.03;76.68
41898;BME280;27576;53.366;-1.498;2022-08-21T08:19:38;100081.72;;;18.14;78.00
41898;BME280;27576;53.366;-1.498;2022-08-21T08:22:13;100047.56;;;18.18;77.34
41898;BME280;27576;53.366;-1.498;2022-08-21T08:24:38;100084.38;;;18.50;75.64
41898;BME280;27576;53.366;-1.498;2022-08-21T08:27:04;100087.59;;;18.61;74.62
41898;BME280;27576;53.366;-1.498;2022-08-21T08:29:30;100091.97;;;18.61;73.14
41898;BME280;27576;53.366;-1.498;2022-08-21T08:31:56;100065.13;;;18.50;74.35
41898;BME280;27576;53.366;-1.498;2022-08-21T08:34:21;100064.28;;;18.49;72.60
41898;BME280;27576;53.366;-1.498;2022-08-21T08:36:48;100079.56;;;18.68;72.91
41898;BME280;27576;53.366;-1.498;2022-08-21T08:39:13;100086.78;;;18.94;72.03
41898;BME280;27576;53.366;-1.498;2022-08-21T08:41:39;100007.53;;;18.45;66.72
41898;BME280;27576;53.366;-1.498;2022-08-21T08:44:06;100092.59;;;19.06;69.44
41898;BME280;27576;53.366;-1.498;2022-08-21T08:46:36;100095.09;;;19.11;64.70
41898;BME280;27576;53.366;-1.498;2022-08-21T08:49:11;100096.66;;;19.18;66.46
41898;BME280;27576;53.366;-1.498;2022-08-21T08:51:51;100111.09;;;19.33;65.95
41898;BME280;27576;53.366;-1.498;2022-08-21T08:54:31;100087.50;;;19.31;62.82
41898;BME280;27576;53.366;-1.498;2022-08-21T08:57:00;100093.19;;;19.47;63.32
41898;BME280;27576;53.366;-1.498;2022-08-21T08:59:34;100096.88;;;19.40;61.21
41898;BME280;27576;53.366;-1.498;2022-08-21T09:02:01;100103.09;;;19.37;63.09
41898;BME280;27576;53.366;-1.498;2022-08-21T09:04:28;100089.44;;;19.25;63.72
41898;BME280;27576;53.366;-1.498;2022-08-21T09:12:39;100091.69;;;19.38;62.42
41898;BME280;27576;53.366;-1.498;2022-08-21T09:21:08;100116.31;;;19.34;58.42
41898;BME280;27576;53.366;-1.498;2022-08-21T09:24:00;100112.84;;;19.34;58.41
41898;BME280;27576;53.366;-1.498;2022-08-21T09:26:35;100132.53;;;19.50;57.38
41898;BME280;27576;53.366;-1.498;2022-08-21T09:29:06;100061.94;;;19.05;58.72
41898;BME280;27576;53.366;-1.498;2022-08-21T09:31:34;100129.91;;;19.49;58.08
41898;BME280;27576;53.366;-1.498;2022-08-21T09:34:08;100098.00;;;19.31;58.59
41898;BME280;27576;53.366;-1.498;2022-08-21T09:36:43;100110.66;;;19.48;59.05
41898;BME280;27576;53.366;-1.498;2022-08-21T09:39:10;100123.88;;;19.45;59.48
41898;BME280;27576;53.366;-1.498;2022-08-21T09:41:37;100110.25;;;19.32;58.59
41898;BME280;27576;53.366;-1.498;2022-08-21T09:44:05;100128.25;;;19.46;60.17
41898;BME280;27576;53.366;-1.498;2022-08-21T09:46:31;100116.97;;;19.43;60.08
41898;BME280;27576;53.366;-1.498;2022-08-21T09:48:59;100122.69;;;19.57;59.79
41898;BME280;27576;53.366;-1.498;2022-08-21T09:51:30;100129.63;;;19.59;60.07
41898;BME280;27576;53.366;-1.498;2022-08-21T09:54:16;100116.38;;;19.64;58.25
41898;BME280;27576;53.366;-1.498;2022-08-21T09:59:39;100111.97;;;19.65;59.68
41898;BME280;27576;53.366;-1.498;2022-08-21T10:02:37;100117.97;;;19.99;58.29
41898;BME280;27576;53.366;-1.498;2022-08-21T10:05:24;100126.81;;;20.25;57.90
41898;BME280;27576;53.366;-1.498;2022-08-21T10:07:51;100113.19;;;20.40;58.31
41898;BME280;27576;53.366;-1.498;2022-08-21T10:12:45;100125.97;;;20.79;57.27
41898;BME280;27576;53.366;-1.498;2022-08-21T10:21:09;100124.66;;;20.66;56.41
41898;BME280;27576;53.366;-1.498;2022-08-21T10:29:09;100112.84;;;21.02;57.90
41898;BME280;27576;53.366;-1.498;2022-08-21T10:31:58;100111.59;;;21.39;55.87
41898;BME280;27576;53.366;-1.498;2022-08-21T10:40:12;100116.91;;;21.61;53.31
41898;BME280;27576;53.366;-1.498;2022-08-21T10:48:25;100099.06;;;21.69;52.54
41898;BME280;27576;53.366;-1.498;2022-08-21T10:56:17;100115.44;;;21.77;52.44
41898;BME280;27576;53.366;-1.498;2022-08-21T10:58:50;100100.41;;;21.32;53.55
41898;BME280;27576;53.366;-1.498;2022-08-21T11:01:21;100120.97;;;21.21;54.53
41898;BME280;27576;53.366;-1.498;2022-08-21T11:04:12;100111.38;;;20.95;53.94
41898;BME280;27576;53.366;-1.498;2022-08-21T11:06:42;100114.88;;;20.96;54.30
41898;BME280;27576;53.366;-1.498;2022-08-21T11:09:14;100108.94;;;21.14;54.93
41898;BME280;27576;53.366;-1.498;2022-08-21T11:11:52;100094.44;;;21.26;54.17
41898;BME280;27576;53.366;-1.498;2022-08-21T11:17:00;100101.16;;;21.36;55.19
41898;BME280;27576;53.366;-1.498;2022-08-21T11:19:50;100121.88;;;21.47;54.60
41898;BME280;27576;53.366;-1.498;2022-08-21T11:22:50;100124.13;;;21.32;52.74
41898;BME280;27576;53.366;-1.498;2022-08-21T11:25:23;100125.91;;;21.07;54.99
41898;BME280;27576;53.366;-1.498;2022-08-21T11:27:59;100132.31;;;20.98;54.59
41898;BME280;27576;53.366;-1.498;2022-08-21T11:30:31;100117.06;;;20.83;55.77
41898;BME280;27576;53.366;-1.498;2022-08-21T11:38:29;100130.31;;;20.53;56.71
41898;BME280;27576;53.366;-1.498;2022-08-21T11:44:02;100124.38;;;21.25;55.20
41898;BME280;27576;53.366;-1.498;2022-08-21T11:46:57;100116.06;;;21.61;53.49
41898;BME280;27576;53.366;-1.498;2022-08-21T11:57:08;100124.31;;;21.98;52.49
41898;BME280;27576;53.366;-1.498;2022-08-21T11:59:59;100115.31;;;21.80;53.66
41898;BME280;27576;53.366;-1.498;2022-08-21T12:02:29;100122.72;;;21.94;52.31
41898;BME280;27576;53.366;-1.498;2022-08-21T12:05:01;100103.66;;;22.10;51.86
41898;BME280;27576;53.366;-1.498;2022-08-21T12:07:40;100118.66;;;22.31;50.85
41898;BME280;27576;53.366;-1.498;2022-08-21T12:10:14;100124.19;;;22.25;50.68
41898;BME280;27576;53.366;-1.498;2022-08-21T12:12:42;100124.31;;;22.22;51.91
41898;BME280;27576;53.366;-1.498;2022-08-21T12:22:55;100115.84;;;21.67;52.12
41898;BME280;27576;53.366;-1.498;2022-08-21T12:25:37;100135.72;;;21.52;52.72
41898;BME280;27576;53.366;-1.498;2022-08-21T12:28:08;100131.22;;;21.55;53.53
41898;BME280;27576;53.366;-1.498;2022-08-21T12:30:38;100127.47;;;21.61;53.45
41898;BME280;27576;53.366;-1.498;2022-08-21T12:35:52;100119.59;;;22.06;55.31
41898;BME280;27576;53.366;-1.498;2022-08-21T12:38:31;100118.22;;;22.42;52.91
41898;BME280;27576;53.366;-1.498;2022-08-21T12:41:01;100115.69;;;22.61;52.52
41898;BME280;27576;53.366;-1.498;2022-08-21T12:43:47;100101.09;;;23.15;51.95
41898;BME280;27576;53.366;-1.498;2022-08-21T12:46:44;100106.44;;;24.28;48.80
41898;BME280;27576;53.366;-1.498;2022-08-21T12:49:19;100106.75;;;25.10;47.77
41898;BME280;27576;53.366;-1.498;2022-08-21T12:51:56;100105.84;;;25.93;47.42
41898;BME280;27576;53.366;-1.498;2022-08-21T12:54:30;100094.69;;;25.71;42.94
41898;BME280;27576;53.366;-1.498;2022-08-21T12:57:06;100116.97;;;25.35;42.84
41898;BME280;27576;53.366;-1.498;2022-08-21T12:59:36;100116.19;;;24.81;44.90
41898;BME280;27576;53.366;-1.498;2022-08-21T13:02:03;100121.75;;;24.40;45.77
41898;BME280;27576;53.366;-1.498;2022-08-21T13:04:38;100119.06;;;23.85;46.05
41898;BME280;27576;53.366;-1.498;2022-08-21T13:07:11;100121.78;;;23.44;47.24
41898;BME280;27576;53.366;-1.498;2022-08-21T13:09:49;100125.09;;;23.29;47.71
41898;BME280;27576;53.366;-1.498;2022-08-21T13:12:16;100112.22;;;23.21;48.51
41898;BME280;27576;53.366;-1.498;2022-08-21T13:14:44;100082.56;;;23.35;49.51
41898;BME280;27576;53.366;-1.498;2022-08-21T13:17:12;100109.44;;;23.64;48.34
41898;BME280;27576;53.366;-1.498;2022-08-21T13:19:39;100087.91;;;23.52;47.83
41898;BME280;27576;53.366;-1.498;2022-08-21T13:22:12;100107.97;;;23.58;48.15
41898;BME280;27576;53.366;-1.498;2022-08-21T13:24:38;100116.75;;;23.59;47.13
41898;BME280;27576;53.366;-1.498;2022-08-21T13:27:14;100089.47;;;23.38;47.46
41898;BME280;27576;53.366;-1.498;2022-08-21T13:29:40;100116.22;;;23.71;48.65
41898;BME280;27576;53.366;-1.498;2022-08-21T13:32:06;100095.69;;;24.31;47.86
41898;BME280;27576;53.366;-1.498;2022-08-21T13:34:36;100116.19;;;24.98;45.35
41898;BME280;27576;53.366;-1.498;2022-08-21T13:37:05;100121.56;;;24.97;44.79
41898;BME280;27576;53.366;-1.498;2022-08-21T13:39:32;100099.38;;;25.00;44.31
41898;BME280;27576;53.366;-1.498;2022-08-21T13:42:00;100128.38;;;25.53;42.30
41898;BME280;27576;53.366;-1.498;2022-08-21T13:44:34;100118.00;;;25.82;42.45
41898;BME280;27576;53.366;-1.498;2022-08-21T13:47:02;100123.84;;;25.88;41.89
41898;BME280;27576;53.366;-1.498;2022-08-21T13:49:34;100110.94;;;25.65;41.38
41898;BME280;27576;53.366;-1.498;2022-08-21T13:52:00;100106.16;;;25.38;41.99
41898;BME280;27576;53.366;-1.498;2022-08-21T13:54:32;100112.38;;;25.55;42.17
41898;BME280;27576;53.366;-1.498;2022-08-21T13:56:58;100088.28;;;25.75;42.11
41898;BME280;27576;53.366;-1.498;2022-08-21T13:59:26;100113.31;;;26.03;41.88
41898;BME280;27576;53.366;-1.498;2022-08-21T14:02:08;100109.81;;;25.69;41.40
41898;BME280;27576;53.366;-1.498;2022-08-21T14:04:38;100113.81;;;25.44;41.74
41898;BME280;27576;53.366;-1.498;2022-08-21T14:07:26;100105.44;;;25.19;41.84